createdAt,value
2023-03-28T00:01:02.552Z,0.70
2023-03-28T00:03:29.965Z,0.55
2023-03-28T00:06:00.947Z,0.57
2023-03-28T00:08:28.700Z,0.68
2023-03-28T00:11:07.576Z,0.75
2023-03-28T00:13:35.366Z,1.40
2023-03-28T00:16:12.894Z,1.15
2023-03-28T00:18:41.436Z,1.40
2023-03-28T00:21:19.949Z,0.95
2023-03-28T00:23:46.798Z,1.05
2023-03-28T00:26:13.738Z,0.60
2023-03-28T00:28:40.568Z,1.08
2023-03-28T00:31:08.518Z,1.08
2023-03-28T00:33:35.513Z,1.27
2023-03-28T00:36:02.636Z,1.45
2023-03-28T00:38:29.870Z,1.05
2023-03-28T00:40:57.933Z,0.43
2023-03-28T00:43:43.302Z,0.80
2023-03-28T00:46:16.083Z,0.70
2023-03-28T00:48:49.084Z,0.70
2023-03-28T00:51:20.909Z,0.60
2023-03-28T00:53:48.195Z,0.30
2023-03-28T00:56:18.186Z,0.77
2023-03-28T00:58:47.965Z,0.77
2023-03-28T01:01:16.007Z,0.45
2023-03-28T01:03:47.286Z,0.60
2023-03-28T01:06:15.991Z,1.50
2023-03-28T01:08:47.103Z,0.38
2023-03-28T01:11:15.298Z,0.50
2023-03-28T01:13:49.081Z,0.68
2023-03-28T01:16:18.706Z,0.45
2023-03-28T01:18:51.618Z,0.88
2023-03-28T01:21:56.301Z,0.68
2023-03-28T01:24:44.806Z,0.50
2023-03-28T01:27:19.895Z,2.47
2023-03-28T01:30:09.793Z,0.30
2023-03-28T01:33:02.176Z,0.65
2023-03-28T01:35:38.527Z,0.57
2023-03-28T01:38:21.069Z,0.60
2023-03-28T01:41:28.604Z,0.55
2023-03-28T01:44:13.101Z,0.30
2023-03-28T01:51:58.857Z,0.70
2023-03-28T01:54:43.950Z,0.60
2023-03-28T01:57:18.457Z,1.17
2023-03-28T01:59:58.654Z,1.20
2023-03-28T02:02:32.904Z,1.75
2023-03-28T02:05:04.300Z,0.60
2023-03-28T02:07:33.846Z,0.85
2023-03-28T02:10:04.675Z,0.73
2023-03-28T02:12:37.755Z,0.80
2023-03-28T02:15:08.629Z,0.60
2023-03-28T02:17:41.744Z,0.65
2023-03-28T02:20:12.525Z,0.50
2023-03-28T02:22:41.517Z,0.40
2023-03-28T02:25:08.905Z,2.38
2023-03-28T02:27:37.539Z,0.95
2023-03-28T02:30:04.985Z,0.77
2023-03-28T02:32:34.145Z,1.00
2023-03-28T02:35:03.112Z,0.57
2023-03-28T02:37:54.875Z,1.60
2023-03-28T02:40:46.676Z,0.75
2023-03-28T02:43:36.957Z,0.60
2023-03-28T02:46:12.815Z,0.73
2023-03-28T02:49:05.261Z,0.70
2023-03-28T02:51:48.233Z,1.42
2023-03-28T02:54:18.060Z,0.50
2023-03-28T02:57:05.306Z,0.40
2023-03-28T02:59:38.357Z,1.15
2023-03-28T03:02:05.579Z,0.52
2023-03-28T03:04:32.367Z,0.50
2023-03-28T03:07:02.044Z,1.48
2023-03-28T03:09:29.282Z,1.27
2023-03-28T03:11:56.102Z,0.32
2023-03-28T03:14:23.188Z,0.47
2023-03-28T03:16:51.689Z,0.60
2023-03-28T03:19:19.496Z,1.40
2023-03-28T03:21:46.610Z,1.10
2023-03-28T03:24:14.429Z,0.65
2023-03-28T03:26:41.342Z,1.05
2023-03-28T03:29:08.307Z,0.47
2023-03-28T03:31:35.315Z,0.52
2023-03-28T03:34:02.595Z,1.40
2023-03-28T03:36:30.546Z,0.80
2023-03-28T03:38:57.751Z,1.13
2023-03-28T03:41:24.590Z,1.42
2023-03-28T03:43:51.491Z,0.98
2023-03-28T03:46:18.895Z,0.80
2023-03-28T03:48:49.737Z,0.70
2023-03-28T03:51:17.402Z,0.60
2023-03-28T03:53:45.001Z,1.52
2023-03-28T03:56:11.932Z,0.65
2023-03-28T03:58:39.036Z,0.85
2023-03-28T04:01:06.182Z,0.50
2023-03-28T04:03:34.322Z,0.68
2023-03-28T04:06:02.034Z,1.15
2023-03-28T04:08:29.106Z,0.90
2023-03-28T04:10:56.270Z,1.02
2023-03-28T04:13:23.090Z,1.15
2023-03-28T04:15:50.086Z,0.93
2023-03-28T04:18:20.413Z,0.98
2023-03-28T04:20:55.323Z,0.80
2023-03-28T04:23:26.087Z,0.30
2023-03-28T04:26:01.599Z,1.83
2023-03-28T04:28:28.959Z,0.85
2023-03-28T04:30:59.698Z,1.08
2023-03-28T04:33:33.741Z,0.63
2023-03-28T04:36:02.331Z,1.63
2023-03-28T04:38:31.912Z,1.27
2023-03-28T04:40:59.360Z,0.65
2023-03-28T04:43:27.332Z,1.02
2023-03-28T04:45:54.480Z,0.93
2023-03-28T04:48:22.841Z,0.70
2023-03-28T04:50:49.997Z,0.40
2023-03-28T04:53:17.389Z,0.73
2023-03-28T04:55:50.378Z,0.65
2023-03-28T04:58:18.802Z,1.25
2023-03-28T05:00:46.329Z,0.63
2023-03-28T05:03:18.346Z,1.10
2023-03-28T05:05:49.006Z,1.23
2023-03-28T05:08:17.468Z,0.57
2023-03-28T05:10:47.562Z,1.38
2023-03-28T05:13:14.925Z,1.38
2023-03-28T05:15:42.569Z,1.63
2023-03-28T05:18:09.798Z,0.52
2023-03-28T05:20:37.120Z,0.70
2023-03-28T05:23:06.225Z,0.50
2023-03-28T05:25:33.578Z,1.17
2023-03-28T05:28:00.700Z,0.80
2023-03-28T05:30:28.023Z,0.52
2023-03-28T05:32:55.129Z,0.70
2023-03-28T05:35:22.068Z,1.15
2023-03-28T05:37:48.970Z,0.50
2023-03-28T05:40:16.782Z,0.57
2023-03-28T05:42:43.980Z,0.52
2023-03-28T05:45:12.650Z,0.85
2023-03-28T05:47:39.758Z,0.40
2023-03-28T05:50:07.908Z,1.20
2023-03-28T05:52:34.880Z,0.95
2023-03-28T05:55:01.913Z,1.17
2023-03-28T05:57:28.750Z,1.33
2023-03-28T05:59:55.954Z,0.73
2023-03-28T06:02:24.503Z,0.75
2023-03-28T06:04:53.995Z,0.60
2023-03-28T06:07:35.202Z,1.23
2023-03-28T06:10:08.410Z,0.90
2023-03-28T06:12:35.397Z,0.95
2023-03-28T06:15:02.538Z,0.47
2023-03-28T06:17:29.473Z,0.80
2023-03-28T06:19:56.741Z,0.60
2023-03-28T06:22:23.853Z,0.52
2023-03-28T06:24:50.923Z,0.85
2023-03-28T06:27:17.773Z,0.70
2023-03-28T06:29:44.574Z,1.25
2023-03-28T06:32:12.667Z,1.23
2023-03-28T06:34:39.644Z,1.20
2023-03-28T06:37:06.668Z,2.10
2023-03-28T06:39:33.484Z,0.77
2023-03-28T06:42:03.284Z,0.95
2023-03-28T06:44:31.092Z,1.20
2023-03-28T06:46:58.484Z,1.17
2023-03-28T06:49:25.393Z,0.80
2023-03-28T06:51:53.155Z,1.00
2023-03-28T06:54:20.468Z,0.95
2023-03-28T06:56:47.321Z,0.88
2023-03-28T06:59:14.146Z,0.82
2023-03-28T07:01:41.163Z,1.73
2023-03-28T07:04:08.122Z,0.70
2023-03-28T07:06:35.184Z,0.98
2023-03-28T07:09:03.497Z,1.17
2023-03-28T07:11:32.389Z,1.05
2023-03-28T07:13:59.253Z,1.65
2023-03-28T07:16:26.188Z,0.75
2023-03-28T07:18:53.084Z,1.60
2023-03-28T07:21:22.303Z,1.10
2023-03-28T07:23:49.304Z,1.10
2023-03-28T07:26:16.642Z,0.75
2023-03-28T07:28:43.836Z,0.75
2023-03-28T07:31:12.415Z,0.65
2023-03-28T07:33:39.882Z,0.65
2023-03-28T07:36:13.099Z,0.63
2023-03-28T07:38:40.093Z,0.85
2023-03-28T07:41:08.078Z,0.77
2023-03-28T07:43:35.419Z,1.83
2023-03-28T07:46:10.567Z,1.02
2023-03-28T07:48:38.571Z,0.65
2023-03-28T07:51:09.380Z,1.65
2023-03-28T07:53:40.297Z,0.70
2023-03-28T07:56:12.540Z,1.42
2023-03-28T07:58:41.483Z,0.52
2023-03-28T08:01:11.049Z,0.50
2023-03-28T08:03:38.097Z,1.13
2023-03-28T08:06:24.345Z,0.77
2023-03-28T08:08:57.235Z,1.27
2023-03-28T08:11:24.159Z,0.45
2023-03-28T08:13:50.965Z,1.45
2023-03-28T08:16:18.060Z,1.17
2023-03-28T08:18:44.915Z,0.80
2023-03-28T08:21:11.731Z,1.25
2023-03-28T08:23:38.506Z,0.50
2023-03-28T08:26:07.293Z,0.50
2023-03-28T08:28:36.438Z,0.73
2023-03-28T08:31:14.272Z,0.68
2023-03-28T08:33:47.195Z,1.05
2023-03-28T08:36:14.861Z,0.70
2023-03-28T08:38:42.782Z,1.10
2023-03-28T08:41:18.362Z,0.60
2023-03-28T08:43:51.935Z,1.27
2023-03-28T08:46:21.872Z,0.67
2023-03-28T08:48:51.974Z,0.65
2023-03-28T08:51:30.621Z,0.60
2023-03-28T08:54:19.463Z,1.38
2023-03-28T08:56:51.818Z,1.02
2023-03-28T08:59:29.479Z,0.60
2023-03-28T09:01:56.384Z,1.15
2023-03-28T09:04:30.706Z,0.65
2023-03-28T09:07:26.501Z,0.55
2023-03-28T09:10:06.897Z,0.47
2023-03-28T09:12:44.029Z,0.88
2023-03-28T09:15:42.100Z,0.70
2023-03-28T09:18:22.470Z,0.73
2023-03-28T09:21:12.524Z,0.30
2023-03-28T09:23:58.096Z,0.45
2023-03-28T09:26:31.702Z,0.57
2023-03-28T09:29:08.955Z,0.98
2023-03-28T09:31:44.009Z,0.95
2023-03-28T09:34:23.026Z,0.80
2023-03-28T09:36:54.855Z,0.95
2023-03-28T09:39:33.343Z,0.55
2023-03-28T09:42:03.752Z,0.30
2023-03-28T09:44:50.989Z,0.63
2023-03-28T09:47:20.804Z,0.32
2023-03-28T09:49:48.500Z,0.40
2023-03-28T09:52:18.641Z,0.73
2023-03-28T09:54:46.213Z,0.50
2023-03-28T09:57:13.114Z,0.52
2023-03-28T09:59:42.149Z,0.50
2023-03-28T10:02:27.327Z,0.20
2023-03-28T10:04:54.909Z,0.28
2023-03-28T10:07:42.488Z,0.30
2023-03-28T10:10:24.856Z,0.20
2023-03-28T10:12:58.070Z,0.35
2023-03-28T10:15:48.148Z,0.50
2023-03-28T10:18:20.882Z,0.40
2023-03-28T10:20:51.300Z,0.40
2023-03-28T10:23:20.985Z,0.28
2023-03-28T10:25:52.386Z,0.38
2023-03-28T10:28:34.939Z,0.20
2023-03-28T10:31:03.363Z,0.40
2023-03-28T10:33:42.403Z,0.63
2023-03-28T10:36:12.665Z,0.20
2023-03-28T10:38:48.416Z,0.40
2023-03-28T10:41:25.818Z,0.10
2023-03-28T10:43:53.654Z,0.63
2023-03-28T10:46:30.817Z,0.63
2023-03-28T10:49:17.035Z,0.50
2023-03-28T10:51:45.792Z,0.50
2023-03-28T10:54:36.586Z,0.55
2023-03-28T10:57:18.436Z,0.50
2023-03-28T10:59:57.303Z,0.32
2023-03-28T11:02:51.652Z,0.82
2023-03-28T11:05:31.905Z,0.52
2023-03-28T11:08:04.806Z,0.30
2023-03-28T11:10:50.194Z,0.50
2023-03-28T11:13:29.003Z,0.80
2023-03-28T11:16:19.495Z,0.50
2023-03-28T11:19:01.405Z,0.93
2023-03-28T11:21:55.591Z,0.88
2023-03-28T11:24:32.132Z,0.77
2023-03-28T11:27:31.425Z,0.50
2023-03-28T11:30:15.978Z,0.40
2023-03-28T11:33:02.772Z,0.30
2023-03-28T11:35:39.220Z,0.30
2023-03-28T11:38:20.577Z,0.35
2023-03-28T11:40:59.482Z,0.45
2023-03-28T11:43:36.579Z,0.85
2023-03-28T11:46:11.336Z,0.45
2023-03-28T11:48:55.762Z,0.32
2023-03-28T11:51:27.882Z,0.45
2023-03-28T11:54:17.019Z,0.25
2023-03-28T11:56:55.515Z,0.30
2023-03-28T11:59:39.055Z,0.68
2023-03-28T12:02:31.555Z,0.60
2023-03-28T12:05:26.405Z,1.02
2023-03-28T12:08:05.173Z,0.60
2023-03-28T12:10:37.225Z,0.28
2023-03-28T12:13:25.630Z,0.40
2023-03-28T12:16:01.392Z,0.90
2023-03-28T12:18:43.275Z,0.68
2023-03-28T12:21:18.808Z,0.88
2023-03-28T12:24:11.384Z,0.60
2023-03-28T12:27:21.000Z,0.35
2023-03-28T12:30:05.563Z,0.57
2023-03-28T12:32:56.690Z,1.42
2023-03-28T12:35:33.655Z,0.85
2023-03-28T12:38:28.599Z,0.77
2023-03-28T12:41:00.627Z,0.60
2023-03-28T12:43:47.302Z,0.45
2023-03-28T12:46:18.424Z,0.40
2023-03-28T12:49:17.193Z,0.60
2023-03-28T12:51:49.890Z,0.75
2023-03-28T12:54:16.666Z,1.20
2023-03-28T12:57:04.062Z,0.77
2023-03-28T12:59:39.903Z,0.55
2023-03-28T13:02:18.076Z,0.55
2023-03-28T13:05:11.189Z,1.17
2023-03-28T13:08:04.915Z,0.50
2023-03-28T13:11:13.189Z,0.90
2023-03-28T13:14:22.402Z,0.70
2023-03-28T13:16:58.128Z,1.40
2023-03-28T13:19:43.425Z,0.82
2023-03-28T13:22:32.452Z,0.82
2023-03-28T13:25:35.200Z,0.75
2023-03-28T13:28:31.830Z,0.90
2023-03-28T13:31:11.268Z,0.73
2023-03-28T13:33:46.855Z,0.60
2023-03-28T13:36:19.641Z,0.70
2023-03-28T13:38:56.621Z,0.70
2023-03-28T13:41:52.731Z,1.48
2023-03-28T13:44:38.721Z,0.70
2023-03-28T13:47:06.244Z,0.63
2023-03-28T13:49:43.675Z,0.50
2023-03-28T13:52:14.491Z,0.88
2023-03-28T13:54:41.546Z,0.73
2023-03-28T13:57:16.998Z,0.85
2023-03-28T13:59:54.703Z,0.85
2023-03-28T14:02:32.481Z,0.80
2023-03-28T14:05:12.271Z,1.08
2023-03-28T14:07:39.769Z,1.30
2023-03-28T14:10:33.215Z,0.98
2023-03-28T14:13:04.370Z,0.70
2023-03-28T14:15:37.735Z,0.88
2023-03-28T14:18:05.988Z,1.23
2023-03-28T14:20:33.526Z,0.80
2023-03-28T14:23:01.600Z,1.05
2023-03-28T14:25:29.455Z,0.75
2023-03-28T14:27:57.368Z,1.10
2023-03-28T14:30:24.268Z,1.25
2023-03-28T14:32:57.349Z,1.60
2023-03-28T14:35:30.308Z,0.98
2023-03-28T14:38:02.816Z,0.73
2023-03-28T14:40:33.163Z,0.77
2023-03-28T14:43:04.574Z,0.88
2023-03-28T14:45:37.696Z,0.57
2023-03-28T14:48:09.734Z,0.70
2023-03-28T14:50:38.809Z,0.80
2023-03-28T14:53:09.492Z,0.88
2023-03-28T14:55:37.719Z,0.50
2023-03-28T14:58:07.961Z,0.60
2023-03-28T15:00:43.212Z,1.10
2023-03-28T15:03:27.204Z,0.55
2023-03-28T15:05:56.930Z,1.05
2023-03-28T15:08:36.084Z,0.70
2023-03-28T15:11:12.466Z,1.45
2023-03-28T15:13:41.441Z,1.17
2023-03-28T15:16:09.370Z,0.98
2023-03-28T15:18:51.630Z,1.05
2023-03-28T15:21:21.498Z,2.15
2023-03-28T15:23:59.531Z,2.72
2023-03-28T15:26:33.130Z,1.30
2023-03-28T15:29:00.994Z,1.42
2023-03-28T15:31:28.868Z,1.00
2023-03-28T15:33:57.966Z,1.55
2023-03-28T15:36:32.250Z,1.13
2023-03-28T15:39:17.395Z,1.30
2023-03-28T15:41:48.698Z,0.93
2023-03-28T15:44:34.349Z,1.48
2023-03-28T15:47:11.076Z,1.27
2023-03-28T15:49:38.958Z,0.90
2023-03-28T15:52:15.329Z,1.08
2023-03-28T15:54:44.588Z,0.90
2023-03-28T15:57:14.470Z,0.85
2023-03-28T15:59:51.273Z,0.93
2023-03-28T16:02:29.852Z,0.60
2023-03-28T16:05:04.669Z,0.75
2023-03-28T16:07:48.996Z,1.00
2023-03-28T16:10:21.625Z,1.48
2023-03-28T16:12:51.080Z,1.70
2023-03-28T16:15:19.009Z,1.00
2023-03-28T16:17:47.371Z,1.15
2023-03-28T16:20:23.096Z,1.67
2023-03-28T16:22:50.766Z,1.02
2023-03-28T16:25:17.883Z,0.80
2023-03-28T16:27:47.274Z,0.52
2023-03-28T16:30:27.432Z,0.98
2023-03-28T16:32:54.795Z,0.63
2023-03-28T16:35:22.781Z,1.48
2023-03-28T16:37:49.742Z,0.90
2023-03-28T16:40:17.954Z,1.13
2023-03-28T16:42:44.904Z,1.40
2023-03-28T16:45:13.641Z,0.80
2023-03-28T16:47:43.556Z,1.30
2023-03-28T16:50:13.840Z,1.10
2023-03-28T16:52:42.757Z,1.30
2023-03-28T16:55:11.884Z,1.20
2023-03-28T16:57:39.106Z,1.50
2023-03-28T17:00:14.099Z,0.80
2023-03-28T17:02:41.289Z,1.15
2023-03-28T17:05:08.602Z,1.63
2023-03-28T17:07:35.553Z,1.23
2023-03-28T17:10:04.924Z,1.20
2023-03-28T17:12:34.460Z,1.60
2023-03-28T17:15:01.348Z,0.90
2023-03-28T17:17:28.620Z,1.00
2023-03-28T17:19:56.671Z,0.98
2023-03-28T17:22:23.552Z,1.60
2023-03-28T17:24:50.874Z,0.70
2023-03-28T17:27:18.037Z,0.60
2023-03-28T17:29:44.896Z,0.73
2023-03-28T17:32:12.001Z,0.82
2023-03-28T17:34:40.823Z,2.10
2023-03-28T17:37:07.766Z,1.25
2023-03-28T17:39:34.762Z,1.35
2023-03-28T17:42:02.117Z,3.00
2023-03-28T17:44:29.046Z,4.20
2023-03-28T17:46:57.522Z,3.35
2023-03-28T17:49:24.407Z,1.90
2023-03-28T17:51:52.050Z,1.60
2023-03-28T17:54:19.021Z,1.20
2023-03-28T17:56:45.881Z,0.80
2023-03-28T17:59:12.779Z,1.02
2023-03-28T18:01:39.743Z,0.60
2023-03-28T18:04:09.653Z,1.00
2023-03-28T18:06:37.129Z,1.10
2023-03-28T18:09:05.756Z,1.05
2023-03-28T18:11:32.753Z,1.80
2023-03-28T18:13:59.612Z,1.42
2023-03-28T18:16:28.876Z,1.50
2023-03-28T18:18:57.408Z,1.35
2023-03-28T18:21:24.964Z,2.05
2023-03-28T18:23:52.008Z,1.25
2023-03-28T18:26:19.388Z,1.33
2023-03-28T18:28:46.323Z,1.17
2023-03-28T18:31:28.195Z,1.98
2023-03-28T18:33:57.214Z,1.95
2023-03-28T18:36:24.960Z,1.17
2023-03-28T18:38:53.114Z,1.30
2023-03-28T18:41:20.286Z,0.90
2023-03-28T18:43:50.202Z,1.00
2023-03-28T18:46:17.250Z,1.23
2023-03-28T18:48:46.381Z,1.35
2023-03-28T18:51:14.245Z,1.48
2023-03-28T18:53:41.233Z,1.60
2023-03-28T18:56:09.368Z,1.25
2023-03-28T18:58:37.191Z,1.70
2023-03-28T19:01:10.328Z,1.33
2023-03-28T19:03:43.417Z,1.75
2023-03-28T19:06:12.722Z,1.92
2023-03-28T19:08:40.411Z,1.55
2023-03-28T19:11:13.205Z,1.40
2023-03-28T19:13:41.059Z,1.23
2023-03-28T19:16:17.070Z,1.20
2023-03-28T19:18:46.777Z,1.42
2023-03-28T19:21:14.713Z,1.95
2023-03-28T19:23:41.674Z,1.30
2023-03-28T19:26:11.269Z,1.20
2023-03-28T19:28:40.333Z,2.00
2023-03-28T19:31:09.682Z,1.42
2023-03-28T19:33:37.821Z,2.17
2023-03-28T19:36:06.210Z,1.90
2023-03-28T19:38:35.436Z,2.13
2023-03-28T19:41:05.610Z,1.38
2023-03-28T19:43:36.599Z,1.20
2023-03-28T19:46:06.253Z,1.80
2023-03-28T19:48:33.371Z,4.15
2023-03-28T19:51:00.763Z,3.20
2023-03-28T19:53:29.777Z,3.20
2023-03-28T19:55:59.116Z,2.25
2023-03-28T19:58:27.408Z,2.47
2023-03-28T20:00:58.706Z,1.60
2023-03-28T20:03:26.010Z,1.20
2023-03-28T20:05:53.041Z,1.92
2023-03-28T20:08:21.626Z,1.38
2023-03-28T20:10:51.294Z,1.45
2023-03-28T20:13:18.905Z,1.42
2023-03-28T20:15:47.025Z,1.60
2023-03-28T20:18:20.498Z,1.77
2023-03-28T20:21:00.395Z,1.55
2023-03-28T20:23:29.261Z,1.38
2023-03-28T20:25:57.718Z,1.48
2023-03-28T20:28:25.519Z,2.70
2023-03-28T20:30:53.986Z,2.00
2023-03-28T20:33:21.397Z,2.70
2023-03-28T20:35:56.858Z,1.67
2023-03-28T20:38:24.975Z,2.05
2023-03-28T20:40:52.271Z,3.70
2023-03-28T20:43:26.759Z,1.40
2023-03-28T20:45:55.086Z,1.85
2023-03-28T20:48:35.063Z,2.20
2023-03-28T20:51:25.994Z,1.83
2023-03-28T20:53:59.062Z,1.48
2023-03-28T20:56:30.739Z,1.75
2023-03-28T20:58:59.603Z,1.95
2023-03-28T21:01:30.165Z,1.80
2023-03-28T21:04:00.073Z,1.80
2023-03-28T21:06:33.441Z,1.90
2023-03-28T21:09:02.710Z,1.65
2023-03-28T21:11:31.914Z,2.00
2023-03-28T21:14:00.177Z,1.90
2023-03-28T21:16:28.344Z,2.08
2023-03-28T21:18:59.700Z,1.90
2023-03-28T21:21:29.809Z,1.45
2023-03-28T21:23:57.089Z,1.50
2023-03-28T21:26:24.655Z,1.40
2023-03-28T21:28:57.855Z,1.50
2023-03-28T21:31:27.987Z,2.42
2023-03-28T21:33:59.673Z,2.10
2023-03-28T21:36:28.055Z,1.63
2023-03-28T21:38:56.021Z,1.60
2023-03-28T21:41:23.144Z,1.75
2023-03-28T21:43:50.407Z,1.83
2023-03-28T21:46:18.560Z,1.80
2023-03-28T21:48:47.896Z,1.88
2023-03-28T21:51:16.183Z,2.33
2023-03-28T21:53:43.159Z,1.38
2023-03-28T21:56:12.648Z,2.10
2023-03-28T21:58:39.533Z,2.00
2023-03-28T22:01:06.628Z,2.60
2023-03-28T22:03:37.270Z,1.83
2023-03-28T22:06:04.445Z,1.95
2023-03-28T22:08:31.512Z,1.73
2023-03-28T22:11:01.206Z,1.92
2023-03-28T22:13:29.814Z,1.90
2023-03-28T22:16:00.566Z,1.92
2023-03-28T22:18:28.324Z,1.50
2023-03-28T22:20:55.521Z,1.20
2023-03-28T22:23:23.627Z,1.05
2023-03-28T22:25:52.923Z,1.08
2023-03-28T22:28:24.442Z,0.85
2023-03-28T22:30:54.193Z,1.20
2023-03-28T22:33:21.125Z,1.25
2023-03-28T22:35:48.551Z,0.98
2023-03-28T22:38:15.616Z,0.90
2023-03-28T22:40:42.501Z,1.10
2023-03-28T22:43:09.837Z,1.10
2023-03-28T22:45:37.268Z,0.80
2023-03-28T22:48:04.388Z,1.05
2023-03-28T22:50:33.568Z,1.10
2023-03-28T22:53:02.308Z,0.68
2023-03-28T22:55:29.228Z,0.90
2023-03-28T22:57:56.279Z,1.00
2023-03-28T23:00:23.422Z,1.20
2023-03-28T23:02:52.006Z,1.05
2023-03-28T23:05:19.833Z,0.93
2023-03-28T23:07:46.779Z,1.58
2023-03-28T23:10:17.499Z,0.80
2023-03-28T23:12:44.860Z,1.10
2023-03-28T23:15:12.530Z,1.05
2023-03-28T23:17:39.758Z,0.63
2023-03-28T23:20:13.264Z,0.68
2023-03-28T23:22:45.255Z,0.93
2023-03-28T23:25:13.161Z,1.30
2023-03-28T23:27:40.575Z,1.02
2023-03-28T23:30:08.909Z,1.40
2023-03-28T23:32:36.178Z,1.15
2023-03-28T23:35:04.101Z,1.58
2023-03-28T23:37:30.984Z,0.93
2023-03-28T23:39:58.369Z,1.45
2023-03-28T23:42:25.683Z,1.10
2023-03-28T23:44:52.677Z,1.38
2023-03-28T23:47:20.586Z,1.20
2023-03-28T23:49:47.641Z,1.10
2023-03-28T23:52:18.056Z,1.13
2023-03-28T23:54:45.470Z,1.40
2023-03-28T23:57:12.441Z,1.10
2023-03-28T23:59:39.381Z,1.33
